sensor_id;sensor_type;location;lat;lon;timestamp;temperature;humidity
23186;DHT22;11761;51.324;4.590;2022-11-15T00:00:53;8.40;99.90
23186;DHT22;11761;51.324;4.590;2022-11-15T00:03:24;8.40;99.90
23186;DHT22;11761;51.324;4.590;2022-11-15T00:05:51;8.50;99.90
23186;DHT22;11761;51.324;4.590;2022-11-15T00:08:17;8.50;99.90
23186;DHT22;11761;51.324;4.590;2022-11-15T00:10:56;8.60;99.90
23186;DHT22;11761;51.324;4.590;2022-11-15T00:13:23;8.60;99.90
23186;DHT22;11761;51.324;4.590;2022-11-15T00:15:49;8.60;99.90
23186;DHT22;11761;51.324;4.590;2022-11-15T00:18:15;8.70;99.90
23186;DHT22;11761;51.324;4.590;2022-11-15T00:20:42;8.70;99.90
23186;DHT22;11761;51.324;4.590;2022-11-15T00:23:08;8.70;99.90
23186;DHT22;11761;51.324;4.590;2022-11-15T00:25:35;8.70;99.90
23186;DHT22;11761;51.324;4.590;2022-11-15T00:28:01;8.70;99.90
23186;DHT22;11761;51.324;4.590;2022-11-15T00:30:28;8.70;99.90
23186;DHT22;11761;51.324;4.590;2022-11-15T00:32:54;8.80;99.90
23186;DHT22;11761;51.324;4.590;2022-11-15T00:35:20;8.80;99.90
23186;DHT22;11761;51.324;4.590;2022-11-15T00:37:47;8.80;99.90
23186;DHT22;11761;51.324;4.590;2022-11-15T00:40:14;8.90;99.90
23186;DHT22;11761;51.324;4.590;2022-11-15T00:42:41;9.00;99.90
23186;DHT22;11761;51.324;4.590;2022-11-15T00:45:08;9.10;99.90
23186;DHT22;11761;51.324;4.590;2022-11-15T00:47:34;9.20;99.90
23186;DHT22;11761;51.324;4.590;2022-11-15T00:50:00;9.30;99.90
23186;DHT22;11761;51.324;4.590;2022-11-15T00:52:26;9.40;99.90
23186;DHT22;11761;51.324;4.590;2022-11-15T00:54:52;9.40;99.90
23186;DHT22;11761;51.324;4.590;2022-11-15T00:57:18;9.50;99.90
23186;DHT22;11761;51.324;4.590;2022-11-15T00:59:44;9.60;99.90
23186;DHT22;11761;51.324;4.590;2022-11-15T01:02:10;9.60;99.90
23186;DHT22;11761;51.324;4.590;2022-11-15T01:04:37;9.60;99.90
23186;DHT22;11761;51.324;4.590;2022-11-15T01:07:03;9.70;99.90
23186;DHT22;11761;51.324;4.590;2022-11-15T01:09:29;9.70;99.90
23186;DHT22;11761;51.324;4.590;2022-11-15T01:11:55;9.80;99.90
23186;DHT22;11761;51.324;4.590;2022-11-15T01:14:21;9.80;99.90
23186;DHT22;11761;51.324;4.590;2022-11-15T01:16:47;9.90;99.90
23186;DHT22;11761;51.324;4.590;2022-11-15T01:19:13;9.90;99.90
23186;DHT22;11761;51.324;4.590;2022-11-15T01:21:39;10.00;99.90
23186;DHT22;11761;51.324;4.590;2022-11-15T01:24:06;10.00;99.90
23186;DHT22;11761;51.324;4.590;2022-11-15T01:26:32;10.10;99.90
23186;DHT22;11761;51.324;4.590;2022-11-15T01:28:58;10.10;99.90
23186;DHT22;11761;51.324;4.590;2022-11-15T01:31:24;10.10;99.90
23186;DHT22;11761;51.324;4.590;2022-11-15T01:33:50;10.10;99.90
23186;DHT22;11761;51.324;4.590;2022-11-15T01:36:19;10.20;99.90
23186;DHT22;11761;51.324;4.590;2022-11-15T01:38:45;10.20;99.90
23186;DHT22;11761;51.324;4.590;2022-11-15T01:41:20;10.30;99.90
23186;DHT22;11761;51.324;4.590;2022-11-15T01:46:41;10.30;99.90
23186;DHT22;11761;51.324;4.590;2022-11-15T01:49:19;10.30;99.90
23186;DHT22;11761;51.324;4.590;2022-11-15T01:51:47;10.30;99.90
23186;DHT22;11761;51.324;4.590;2022-11-15T01:54:16;10.30;99.90
23186;DHT22;11761;51.324;4.590;2022-11-15T01:56:51;10.40;99.90
23186;DHT22;11761;51.324;4.590;2022-11-15T01:59:18;10.40;99.90
23186;DHT22;11761;51.324;4.590;2022-11-15T02:01:45;10.40;99.90
23186;DHT22;11761;51.324;4.590;2022-11-15T02:04:16;10.40;99.90
23186;DHT22;11761;51.324;4.590;2022-11-15T02:06:43;10.50;99.90
23186;DHT22;11761;51.324;4.590;2022-11-15T02:09:11;10.50;99.90
23186;DHT22;11761;51.324;4.590;2022-11-15T02:11:37;10.50;99.90
23186;DHT22;11761;51.324;4.590;2022-11-15T02:14:05;10.50;99.90
23186;DHT22;11761;51.324;4.590;2022-11-15T02:27:59;10.60;99.90
23186;DHT22;11761;51.324;4.590;2022-11-15T02:33:14;10.70;99.90
23186;DHT22;11761;51.324;4.590;2022-11-15T02:41:18;10.70;99.90
23186;DHT22;11761;51.324;4.590;2022-11-15T02:43:50;10.70;99.90
23186;DHT22;11761;51.324;4.590;2022-11-15T02:49:13;10.60;99.90
23186;DHT22;11761;51.324;4.590;2022-11-15T02:51:40;10.50;99.90
23186;DHT22;11761;51.324;4.590;2022-11-15T02:54:21;10.50;99.90
23186;DHT22;11761;51.324;4.590;2022-11-15T02:56:49;10.60;99.90
23186;DHT22;11761;51.324;4.590;2022-11-15T03:04:37;10.70;99.90
23186;DHT22;11761;51.324;4.590;2022-11-15T03:07:15;10.70;99.90
23186;DHT22;11761;51.324;4.590;2022-11-15T03:09:55;10.50;99.90
23186;DHT22;11761;51.324;4.590;2022-11-15T03:12:41;10.30;99.90
23186;DHT22;11761;51.324;4.590;2022-11-15T03:15:20;10.10;99.90
23186;DHT22;11761;51.324;4.590;2022-11-15T03:20:17;10.30;99.90
23186;DHT22;11761;51.324;4.590;2022-11-15T03:22:45;10.30;99.90
23186;DHT22;11761;51.324;4.590;2022-11-15T03:25:17;10.20;99.90
23186;DHT22;11761;51.324;4.590;2022-11-15T03:27:50;10.10;99.90
23186;DHT22;11761;51.324;4.590;2022-11-15T03:30:17;10.10;99.90
23186;DHT22;11761;51.324;4.590;2022-11-15T03:32:51;10.40;99.90
23186;DHT22;11761;51.324;4.590;2022-11-15T03:35:27;10.50;99.90
23186;DHT22;11761;51.324;4.590;2022-11-15T03:38:15;10.60;99.90
23186;DHT22;11761;51.324;4.590;2022-11-15T03:40:47;10.70;99.90
23186;DHT22;11761;51.324;4.590;2022-11-15T03:46:00;10.80;99.90
23186;DHT22;11761;51.324;4.590;2022-11-15T03:48:33;10.90;99.90
23186;DHT22;11761;51.324;4.590;2022-11-15T03:50:59;10.90;99.90
23186;DHT22;11761;51.324;4.590;2022-11-15T03:53:27;10.90;99.90
23186;DHT22;11761;51.324;4.590;2022-11-15T03:55:54;11.00;99.90
23186;DHT22;11761;51.324;4.590;2022-11-15T03:58:20;11.00;99.90
23186;DHT22;11761;51.324;4.590;2022-11-15T04:00:46;11.10;99.90
23186;DHT22;11761;51.324;4.590;2022-11-15T04:03:12;11.10;99.90
23186;DHT22;11761;51.324;4.590;2022-11-15T04:05:38;11.10;99.90
23186;DHT22;11761;51.324;4.590;2022-11-15T04:08:04;11.20;99.90
23186;DHT22;11761;51.324;4.590;2022-11-15T04:10:30;11.20;99.90
23186;DHT22;11761;51.324;4.590;2022-11-15T04:12:56;11.20;99.90
23186;DHT22;11761;51.324;4.590;2022-11-15T04:15:23;11.20;99.90
23186;DHT22;11761;51.324;4.590;2022-11-15T04:17:55;11.20;99.90
23186;DHT22;11761;51.324;4.590;2022-11-15T04:20:24;11.10;99.90
23186;DHT22;11761;51.324;4.590;2022-11-15T04:23:12;11.10;99.90
23186;DHT22;11761;51.324;4.590;2022-11-15T04:25:59;11.20;99.90
23186;DHT22;11761;51.324;4.590;2022-11-15T04:28:27;11.20;99.90
23186;DHT22;11761;51.324;4.590;2022-11-15T04:30:53;11.20;99.90
23186;DHT22;11761;51.324;4.590;2022-11-15T04:33:19;11.10;99.90
23186;DHT22;11761;51.324;4.590;2022-11-15T04:35:45;11.10;99.90
23186;DHT22;11761;51.324;4.590;2022-11-15T04:38:31;11.10;99.90
23186;DHT22;11761;51.324;4.590;2022-11-15T04:40:57;11.10;99.90
23186;DHT22;11761;51.324;4.590;2022-11-15T04:43:23;11.10;99.90
23186;DHT22;11761;51.324;4.590;2022-11-15T04:45:49;11.10;99.90
23186;DHT22;11761;51.324;4.590;2022-11-15T04:48:16;11.10;99.90
23186;DHT22;11761;51.324;4.590;2022-11-15T04:50:42;11.10;99.90
23186;DHT22;11761;51.324;4.590;2022-11-15T04:53:08;11.10;99.90
23186;DHT22;11761;51.324;4.590;2022-11-15T04:55:34;11.00;99.90
23186;DHT22;11761;51.324;4.590;2022-11-15T04:58:01;11.00;99.90
23186;DHT22;11761;51.324;4.590;2022-11-15T05:00:28;11.00;99.90
23186;DHT22;11761;51.324;4.590;2022-11-15T05:02:55;11.00;99.90
23186;DHT22;11761;51.324;4.590;2022-11-15T05:05:40;11.00;99.90
23186;DHT22;11761;51.324;4.590;2022-11-15T05:08:07;11.00;99.90
23186;DHT22;11761;51.324;4.590;2022-11-15T05:10:33;11.00;99.90
23186;DHT22;11761;51.324;4.590;2022-11-15T05:12:59;11.00;99.90
23186;DHT22;11761;51.324;4.590;2022-11-15T05:15:25;11.00;99.90
23186;DHT22;11761;51.324;4.590;2022-11-15T05:17:57;11.00;99.90
23186;DHT22;11761;51.324;4.590;2022-11-15T05:20:23;10.90;99.90
23186;DHT22;11761;51.324;4.590;2022-11-15T05:22:49;10.80;99.90
23186;DHT22;11761;51.324;4.590;2022-11-15T05:25:16;10.80;99.90
23186;DHT22;11761;51.324;4.590;2022-11-15T05:27:42;10.90;99.90
23186;DHT22;11761;51.324;4.590;2022-11-15T05:30:08;10.80;99.90
23186;DHT22;11761;51.324;4.590;2022-11-15T05:32:34;10.80;99.90
23186;DHT22;11761;51.324;4.590;2022-11-15T05:35:00;10.80;99.90
23186;DHT22;11761;51.324;4.590;2022-11-15T05:37:28;10.80;99.90
23186;DHT22;11761;51.324;4.590;2022-11-15T05:39:54;10.80;99.90
23186;DHT22;11761;51.324;4.590;2022-11-15T05:42:20;10.70;99.90
23186;DHT22;11761;51.324;4.590;2022-11-15T05:44:50;10.70;99.90
23186;DHT22;11761;51.324;4.590;2022-11-15T05:47:23;10.70;99.90
23186;DHT22;11761;51.324;4.590;2022-11-15T05:49:52;10.70;99.90
23186;DHT22;11761;51.324;4.590;2022-11-15T05:52:22;10.70;99.90
23186;DHT22;11761;51.324;4.590;2022-11-15T05:54:49;10.60;99.90
23186;DHT22;11761;51.324;4.590;2022-11-15T05:57:16;10.60;99.90
23186;DHT22;11761;51.324;4.590;2022-11-15T05:59:43;10.60;99.90
23186;DHT22;11761;51.324;4.590;2022-11-15T06:02:10;10.60;99.90
23186;DHT22;11761;51.324;4.590;2022-11-15T06:04:36;10.60;99.90
23186;DHT22;11761;51.324;4.590;2022-11-15T06:07:02;10.50;99.90
23186;DHT22;11761;51.324;4.590;2022-11-15T06:09:29;10.50;99.90
23186;DHT22;11761;51.324;4.590;2022-11-15T06:11:55;10.50;99.90
23186;DHT22;11761;51.324;4.590;2022-11-15T06:14:21;10.50;99.90
23186;DHT22;11761;51.324;4.590;2022-11-15T06:16:47;10.60;99.90
23186;DHT22;11761;51.324;4.590;2022-11-15T06:19:13;10.50;99.90
23186;DHT22;11761;51.324;4.590;2022-11-15T06:21:39;10.50;99.90
23186;DHT22;11761;51.324;4.590;2022-11-15T06:24:05;10.50;99.90
23186;DHT22;11761;51.324;4.590;2022-11-15T06:26:32;10.50;99.90
23186;DHT22;11761;51.324;4.590;2022-11-15T06:28:58;10.50;99.90
23186;DHT22;11761;51.324;4.590;2022-11-15T06:31:24;10.50;99.90
23186;DHT22;11761;51.324;4.590;2022-11-15T06:33:50;10.50;99.90
23186;DHT22;11761;51.324;4.590;2022-11-15T06:36:17;10.50;99.90
23186;DHT22;11761;51.324;4.590;2022-11-15T06:38:44;10.50;99.90
23186;DHT22;11761;51.324;4.590;2022-11-15T06:41:11;10.50;99.90
23186;DHT22;11761;51.324;4.590;2022-11-15T06:43:38;10.50;99.90
23186;DHT22;11761;51.324;4.590;2022-11-15T06:46:06;10.50;99.90
23186;DHT22;11761;51.324;4.590;2022-11-15T06:48:33;10.40;99.90
23186;DHT22;11761;51.324;4.590;2022-11-15T06:51:01;10.40;99.90
23186;DHT22;11761;51.324;4.590;2022-11-15T06:53:27;10.40;99.90
23186;DHT22;11761;51.324;4.590;2022-11-15T06:55:58;10.30;99.90
23186;DHT22;11761;51.324;4.590;2022-11-15T06:58:25;10.30;99.90
23186;DHT22;11761;51.324;4.590;2022-11-15T07:00:51;10.30;99.90
23186;DHT22;11761;51.324;4.590;2022-11-15T07:03:17;10.30;99.90
23186;DHT22;11761;51.324;4.590;2022-11-15T07:05:51;10.30;99.90
23186;DHT22;11761;51.324;4.590;2022-11-15T07:08:17;10.30;99.90
23186;DHT22;11761;51.324;4.590;2022-11-15T07:10:43;10.50;99.90
23186;DHT22;11761;51.324;4.590;2022-11-15T07:13:09;10.50;99.90
23186;DHT22;11761;51.324;4.590;2022-11-15T07:15:36;10.50;99.90
23186;DHT22;11761;51.324;4.590;2022-11-15T07:18:02;10.50;99.90
23186;DHT22;11761;51.324;4.590;2022-11-15T07:20:28;10.50;99.90
23186;DHT22;11761;51.324;4.590;2022-11-15T07:23:01;10.30;99.90
23186;DHT22;11761;51.324;4.590;2022-11-15T07:25:28;10.20;99.90
23186;DHT22;11761;51.324;4.590;2022-11-15T07:27:58;10.20;99.90
23186;DHT22;11761;51.324;4.590;2022-11-15T07:30:25;10.10;99.90
23186;DHT22;11761;51.324;4.590;2022-11-15T07:32:56;10.00;99.90
23186;DHT22;11761;51.324;4.590;2022-11-15T07:35:23;10.00;99.90
23186;DHT22;11761;51.324;4.590;2022-11-15T07:38:02;10.00;99.90
23186;DHT22;11761;51.324;4.590;2022-11-15T07:40:30;9.90;99.90
23186;DHT22;11761;51.324;4.590;2022-11-15T07:43:05;9.80;99.90
23186;DHT22;11761;51.324;4.590;2022-11-15T07:45:32;9.60;99.90
23186;DHT22;11761;51.324;4.590;2022-11-15T07:48:01;9.40;99.90
23186;DHT22;11761;51.324;4.590;2022-11-15T07:50:27;9.20;99.90
23186;DHT22;11761;51.324;4.590;2022-11-15T07:52:58;9.40;99.90
23186;DHT22;11761;51.324;4.590;2022-11-15T07:55:26;9.40;99.90
23186;DHT22;11761;51.324;4.590;2022-11-15T07:57:53;9.50;99.90
23186;DHT22;11761;51.324;4.590;2022-11-15T08:00:19;9.60;99.90
23186;DHT22;11761;51.324;4.590;2022-11-15T08:02:45;9.70;99.90
23186;DHT22;11761;51.324;4.590;2022-11-15T08:05:12;9.70;99.90
23186;DHT22;11761;51.324;4.590;2022-11-15T08:07:38;9.80;99.90
23186;DHT22;11761;51.324;4.590;2022-11-15T08:10:06;9.90;99.90
23186;DHT22;11761;51.324;4.590;2022-11-15T08:12:33;9.90;99.90
23186;DHT22;11761;51.324;4.590;2022-11-15T08:15:00;10.00;99.90
23186;DHT22;11761;51.324;4.590;2022-11-15T08:17:26;10.00;99.90
23186;DHT22;11761;51.324;4.590;2022-11-15T08:19:52;10.00;99.90
23186;DHT22;11761;51.324;4.590;2022-11-15T08:22:19;10.10;99.90
23186;DHT22;11761;51.324;4.590;2022-11-15T08:24:45;10.10;99.90
23186;DHT22;11761;51.324;4.590;2022-11-15T08:27:11;10.10;99.90
23186;DHT22;11761;51.324;4.590;2022-11-15T08:29:44;10.10;99.90
23186;DHT22;11761;51.324;4.590;2022-11-15T08:32:11;10.20;99.90
23186;DHT22;11761;51.324;4.590;2022-11-15T08:34:38;10.20;99.90
23186;DHT22;11761;51.324;4.590;2022-11-15T08:37:04;10.30;99.90
23186;DHT22;11761;51.324;4.590;2022-11-15T08:39:31;10.40;99.90
23186;DHT22;11761;51.324;4.590;2022-11-15T08:41:57;10.50;99.90
23186;DHT22;11761;51.324;4.590;2022-11-15T08:44:23;10.50;99.90
23186;DHT22;11761;51.324;4.590;2022-11-15T08:46:50;10.60;99.90
23186;DHT22;11761;51.324;4.590;2022-11-15T08:49:16;10.70;99.90
23186;DHT22;11761;51.324;4.590;2022-11-15T08:51:42;10.80;99.90
23186;DHT22;11761;51.324;4.590;2022-11-15T08:54:08;10.80;99.90
23186;DHT22;11761;51.324;4.590;2022-11-15T08:56:34;10.80;99.90
23186;DHT22;11761;51.324;4.590;2022-11-15T08:59:00;10.70;99.90
23186;DHT22;11761;51.324;4.590;2022-11-15T09:01:27;10.70;99.90
23186;DHT22;11761;51.324;4.590;2022-11-15T09:03:53;10.80;99.90
23186;DHT22;11761;51.324;4.590;2022-11-15T09:06:19;10.80;99.90
23186;DHT22;11761;51.324;4.590;2022-11-15T09:08:45;10.80;99.90
23186;DHT22;11761;51.324;4.590;2022-11-15T09:11:11;10.80;99.90
23186;DHT22;11761;51.324;4.590;2022-11-15T09:13:38;10.80;99.90
23186;DHT22;11761;51.324;4.590;2022-11-15T09:16:04;10.70;99.90
23186;DHT22;11761;51.324;4.590;2022-11-15T09:18:31;10.60;99.90
23186;DHT22;11761;51.324;4.590;2022-11-15T09:20:58;10.60;99.90
23186;DHT22;11761;51.324;4.590;2022-11-15T09:23:25;10.60;99.90
23186;DHT22;11761;51.324;4.590;2022-11-15T09:25:52;10.70;99.90
23186;DHT22;11761;51.324;4.590;2022-11-15T09:28:18;10.70;99.90
23186;DHT22;11761;51.324;4.590;2022-11-15T09:30:44;10.80;99.90
23186;DHT22;11761;51.324;4.590;2022-11-15T09:33:12;10.90;99.90
23186;DHT22;11761;51.324;4.590;2022-11-15T09:35:38;10.90;99.90
23186;DHT22;11761;51.324;4.590;2022-11-15T09:38:04;10.90;99.90
23186;DHT22;11761;51.324;4.590;2022-11-15T09:40:32;10.90;99.90
23186;DHT22;11761;51.324;4.590;2022-11-15T09:46:09;11.00;99.90
23186;DHT22;11761;51.324;4.590;2022-11-15T09:51:18;11.20;99.90
23186;DHT22;11761;51.324;4.590;2022-11-15T09:54:03;11.20;99.90
23186;DHT22;11761;51.324;4.590;2022-11-15T09:56:31;11.40;99.90
23186;DHT22;11761;51.324;4.590;2022-11-15T10:04:37;11.40;99.90
23186;DHT22;11761;51.324;4.590;2022-11-15T10:07:25;11.40;99.90
23186;DHT22;11761;51.324;4.590;2022-11-15T10:12:19;11.40;99.90
23186;DHT22;11761;51.324;4.590;2022-11-15T10:14:46;11.50;99.90
23186;DHT22;11761;51.324;4.590;2022-11-15T10:20:17;11.60;99.90
23186;DHT22;11761;51.324;4.590;2022-11-15T10:23:10;11.70;99.90
23186;DHT22;11761;51.324;4.590;2022-11-15T10:25:35;11.80;99.90
23186;DHT22;11761;51.324;4.590;2022-11-15T10:28:14;11.90;99.90
23186;DHT22;11761;51.324;4.590;2022-11-15T10:30:46;12.00;99.90
23186;DHT22;11761;51.324;4.590;2022-11-15T10:33:32;12.00;99.90
23186;DHT22;11761;51.324;4.590;2022-11-15T10:36:17;12.10;99.90
23186;DHT22;11761;51.324;4.590;2022-11-15T10:41:29;12.30;99.90
23186;DHT22;11761;51.324;4.590;2022-11-15T10:44:07;12.40;99.90
23186;DHT22;11761;51.324;4.590;2022-11-15T10:46:35;12.50;99.90
23186;DHT22;11761;51.324;4.590;2022-11-15T10:49:18;12.60;99.90
23186;DHT22;11761;51.324;4.590;2022-11-15T10:51:54;12.80;99.90
23186;DHT22;11761;51.324;4.590;2022-11-15T10:56:58;13.00;99.90
23186;DHT22;11761;51.324;4.590;2022-11-15T10:59:32;13.10;99.90
23186;DHT22;11761;51.324;4.590;2022-11-15T11:01:59;13.10;99.90
23186;DHT22;11761;51.324;4.590;2022-11-15T11:04:25;13.10;99.90
23186;DHT22;11761;51.324;4.590;2022-11-15T11:06:57;13.00;99.90
23186;DHT22;11761;51.324;4.590;2022-11-15T11:09:35;13.20;99.90
23186;DHT22;11761;51.324;4.590;2022-11-15T11:12:04;13.40;99.90
23186;DHT22;11761;51.324;4.590;2022-11-15T11:14:32;13.60;99.90
23186;DHT22;11761;51.324;4.590;2022-11-15T11:17:23;13.50;99.90
23186;DHT22;11761;51.324;4.590;2022-11-15T11:28:33;13.50;99.90
23186;DHT22;11761;51.324;4.590;2022-11-15T11:33:40;13.10;99.90
23186;DHT22;11761;51.324;4.590;2022-11-15T11:36:27;13.00;99.90
23186;DHT22;11761;51.324;4.590;2022-11-15T11:41:44;13.10;99.90
23186;DHT22;11761;51.324;4.590;2022-11-15T11:44:33;13.10;99.90
23186;DHT22;11761;51.324;4.590;2022-11-15T11:47:22;13.30;99.90
23186;DHT22;11761;51.324;4.590;2022-11-15T11:50:26;13.40;99.90
23186;DHT22;11761;51.324;4.590;2022-11-15T11:53:01;13.60;99.90
23186;DHT22;11761;51.324;4.590;2022-11-15T11:55:33;13.20;99.90
23186;DHT22;11761;51.324;4.590;2022-11-15T12:00:47;12.80;99.90
23186;DHT22;11761;51.324;4.590;2022-11-15T12:03:41;12.70;99.90
23186;DHT22;11761;51.324;4.590;2022-11-15T12:09:36;12.70;99.90
23186;DHT22;11761;51.324;4.590;2022-11-15T12:17:28;12.60;99.90
23186;DHT22;11761;51.324;4.590;2022-11-15T12:20:03;12.70;99.90
23186;DHT22;11761;51.324;4.590;2022-11-15T12:22:47;12.70;99.90
23186;DHT22;11761;51.324;4.590;2022-11-15T12:25:29;12.80;99.90
23186;DHT22;11761;51.324;4.590;2022-11-15T12:31:11;12.70;99.90
23186;DHT22;11761;51.324;4.590;2022-11-15T12:33:39;12.80;99.90
23186;DHT22;11761;51.324;4.590;2022-11-15T12:36:11;12.80;99.90
23186;DHT22;11761;51.324;4.590;2022-11-15T12:39:05;12.80;99.90
23186;DHT22;11761;51.324;4.590;2022-11-15T12:44:03;12.70;99.90
23186;DHT22;11761;51.324;4.590;2022-11-15T12:49:01;12.70;99.90
23186;DHT22;11761;51.324;4.590;2022-11-15T12:59:51;12.70;99.90
23186;DHT22;11761;51.324;4.590;2022-11-15T13:10:29;12.80;99.90
23186;DHT22;11761;51.324;4.590;2022-11-15T13:20:53;12.70;99.90
23186;DHT22;11761;51.324;4.590;2022-11-15T13:23:21;12.60;99.90
23186;DHT22;11761;51.324;4.590;2022-11-15T13:25:57;12.60;99.90
23186;DHT22;11761;51.324;4.590;2022-11-15T13:28:44;12.50;99.90
23186;DHT22;11761;51.324;4.590;2022-11-15T13:31:28;12.50;99.90
23186;DHT22;11761;51.324;4.590;2022-11-15T13:33:58;12.50;99.90
23186;DHT22;11761;51.324;4.590;2022-11-15T13:36:31;12.50;99.90
23186;DHT22;11761;51.324;4.590;2022-11-15T13:41:50;12.60;99.90
23186;DHT22;11761;51.324;4.590;2022-11-15T13:44:26;12.70;99.90
23186;DHT22;11761;51.324;4.590;2022-11-15T13:47:13;12.80;99.90
23186;DHT22;11761;51.324;4.590;2022-11-15T13:49:40;12.80;99.90
23186;DHT22;11761;51.324;4.590;2022-11-15T13:52:10;12.90;99.90
23186;DHT22;11761;51.324;4.590;2022-11-15T13:54:43;12.80;99.90
23186;DHT22;11761;51.324;4.590;2022-11-15T13:57:14;12.80;99.90
23186;DHT22;11761;51.324;4.590;2022-11-15T13:59:56;12.80;99.90
23186;DHT22;11761;51.324;4.590;2022-11-15T14:02:30;12.80;99.90
23186;DHT22;11761;51.324;4.590;2022-11-15T14:05:18;12.70;99.90
23186;DHT22;11761;51.324;4.590;2022-11-15T14:07:57;12.80;99.90
23186;DHT22;11761;51.324;4.590;2022-11-15T14:10:35;12.70;99.90
23186;DHT22;11761;51.324;4.590;2022-11-15T14:13:03;12.70;99.90
23186;DHT22;11761;51.324;4.590;2022-11-15T14:15:34;12.70;99.90
23186;DHT22;11761;51.324;4.590;2022-11-15T14:18:01;12.60;99.90
23186;DHT22;11761;51.324;4.590;2022-11-15T14:20:31;12.60;99.90
23186;DHT22;11761;51.324;4.590;2022-11-15T14:23:04;12.60;99.90
23186;DHT22;11761;51.324;4.590;2022-11-15T14:25:32;12.60;99.90
23186;DHT22;11761;51.324;4.590;2022-11-15T14:28:15;12.60;99.90
23186;DHT22;11761;51.324;4.590;2022-11-15T14:30:43;12.60;99.90
23186;DHT22;11761;51.324;4.590;2022-11-15T14:33:32;12.60;99.90
23186;DHT22;11761;51.324;4.590;2022-11-15T14:36:05;12.60;99.90
23186;DHT22;11761;51.324;4.590;2022-11-15T14:38:32;12.60;99.90
23186;DHT22;11761;51.324;4.590;2022-11-15T14:40:58;12.60;99.90
23186;DHT22;11761;51.324;4.590;2022-11-15T14:43:25;12.60;99.90
23186;DHT22;11761;51.324;4.590;2022-11-15T14:45:51;12.60;99.90
23186;DHT22;11761;51.324;4.590;2022-11-15T14:48:17;12.60;99.90
23186;DHT22;11761;51.324;4.590;2022-11-15T14:50:43;12.50;99.90
23186;DHT22;11761;51.324;4.590;2022-11-15T14:53:15;12.50;99.90
23186;DHT22;11761;51.324;4.590;2022-11-15T14:55:42;12.50;99.90
23186;DHT22;11761;51.324;4.590;2022-11-15T14:58:09;12.40;99.90
23186;DHT22;11761;51.324;4.590;2022-11-15T15:00:37;12.30;99.90
23186;DHT22;11761;51.324;4.590;2022-11-15T15:03:04;12.30;99.90
23186;DHT22;11761;51.324;4.590;2022-11-15T15:08:02;12.10;99.90
23186;DHT22;11761;51.324;4.590;2022-11-15T15:10:32;12.10;99.90
23186;DHT22;11761;51.324;4.590;2022-11-15T15:12:58;12.00;99.90
23186;DHT22;11761;51.324;4.590;2022-11-15T15:15:26;11.90;99.90
23186;DHT22;11761;51.324;4.590;2022-11-15T15:17:55;11.80;99.90
23186;DHT22;11761;51.324;4.590;2022-11-15T15:20:21;11.80;99.90
23186;DHT22;11761;51.324;4.590;2022-11-15T15:22:47;11.70;99.90
23186;DHT22;11761;51.324;4.590;2022-11-15T15:25:31;11.50;99.90
23186;DHT22;11761;51.324;4.590;2022-11-15T15:28:01;11.30;99.90
23186;DHT22;11761;51.324;4.590;2022-11-15T15:30:29;11.20;99.90
23186;DHT22;11761;51.324;4.590;2022-11-15T15:32:55;11.10;99.90
23186;DHT22;11761;51.324;4.590;2022-11-15T15:35:22;11.10;99.90
23186;DHT22;11761;51.324;4.590;2022-11-15T15:37:49;11.10;99.90
23186;DHT22;11761;51.324;4.590;2022-11-15T15:40:21;11.00;99.90
23186;DHT22;11761;51.324;4.590;2022-11-15T15:42:48;11.00;99.90
23186;DHT22;11761;51.324;4.590;2022-11-15T15:45:15;10.90;99.90
23186;DHT22;11761;51.324;4.590;2022-11-15T15:47:42;10.90;99.90
23186;DHT22;11761;51.324;4.590;2022-11-15T15:50:29;10.90;99.90
23186;DHT22;11761;51.324;4.590;2022-11-15T15:52:59;10.90;99.90
23186;DHT22;11761;51.324;4.590;2022-11-15T15:55:26;10.90;99.90
23186;DHT22;11761;51.324;4.590;2022-11-15T15:57:53;10.90;99.90
23186;DHT22;11761;51.324;4.590;2022-11-15T16:00:20;10.90;99.90
23186;DHT22;11761;51.324;4.590;2022-11-15T16:02:47;10.90;99.90
23186;DHT22;11761;51.324;4.590;2022-11-15T16:05:13;10.90;99.90
23186;DHT22;11761;51.324;4.590;2022-11-15T16:07:40;10.90;99.90
23186;DHT22;11761;51.324;4.590;2022-11-15T16:10:29;10.90;99.90
23186;DHT22;11761;51.324;4.590;2022-11-15T16:12:57;10.90;99.90
23186;DHT22;11761;51.324;4.590;2022-11-15T16:15:29;10.90;99.90
23186;DHT22;11761;51.324;4.590;2022-11-15T16:17:57;10.90;99.90
23186;DHT22;11761;51.324;4.590;2022-11-15T16:20:36;10.90;99.90
23186;DHT22;11761;51.324;4.590;2022-11-15T16:23:08;10.90;99.90
23186;DHT22;11761;51.324;4.590;2022-11-15T16:25:48;10.90;99.90
23186;DHT22;11761;51.324;4.590;2022-11-15T16:28:27;10.90;99.90
23186;DHT22;11761;51.324;4.590;2022-11-15T16:33:29;10.90;99.90
23186;DHT22;11761;51.324;4.590;2022-11-15T16:35:55;10.90;99.90
23186;DHT22;11761;51.324;4.590;2022-11-15T16:38:21;10.90;99.90
23186;DHT22;11761;51.324;4.590;2022-11-15T16:40:47;10.90;99.90
23186;DHT22;11761;51.324;4.590;2022-11-15T16:43:13;10.90;99.90
23186;DHT22;11761;51.324;4.590;2022-11-15T16:45:40;11.00;99.90
23186;DHT22;11761;51.324;4.590;2022-11-15T16:48:06;10.90;99.90
23186;DHT22;11761;51.324;4.590;2022-11-15T16:50:34;10.90;99.90
23186;DHT22;11761;51.324;4.590;2022-11-15T16:53:06;10.90;99.90
23186;DHT22;11761;51.324;4.590;2022-11-15T16:55:32;10.90;99.90
23186;DHT22;11761;51.324;4.590;2022-11-15T16:57:58;10.90;99.90
23186;DHT22;11761;51.324;4.590;2022-11-15T17:00:24;10.90;99.90
23186;DHT22;11761;51.324;4.590;2022-11-15T17:02:51;10.90;99.90
23186;DHT22;11761;51.324;4.590;2022-11-15T17:05:20;10.90;99.90
23186;DHT22;11761;51.324;4.590;2022-11-15T17:07:48;10.90;99.90
23186;DHT22;11761;51.324;4.590;2022-11-15T17:10:15;10.90;99.90
23186;DHT22;11761;51.324;4.590;2022-11-15T17:12:42;10.90;99.90
23186;DHT22;11761;51.324;4.590;2022-11-15T17:15:11;10.90;99.90
23186;DHT22;11761;51.324;4.590;2022-11-15T17:17:38;11.00;99.90
23186;DHT22;11761;51.324;4.590;2022-11-15T17:20:05;10.90;99.90
23186;DHT22;11761;51.324;4.590;2022-11-15T17:22:36;11.00;99.90
23186;DHT22;11761;51.324;4.590;2022-11-15T17:25:03;11.00;99.90
23186;DHT22;11761;51.324;4.590;2022-11-15T17:27:30;11.00;99.90
23186;DHT22;11761;51.324;4.590;2022-11-15T17:29:56;11.00;99.90
23186;DHT22;11761;51.324;4.590;2022-11-15T17:32:22;11.00;99.90
23186;DHT22;11761;51.324;4.590;2022-11-15T17:34:49;11.00;99.90
23186;DHT22;11761;51.324;4.590;2022-11-15T17:37:15;11.00;99.90
23186;DHT22;11761;51.324;4.590;2022-11-15T17:39:41;11.00;99.90
23186;DHT22;11761;51.324;4.590;2022-11-15T17:42:07;11.00;99.90
23186;DHT22;11761;51.324;4.590;2022-11-15T17:44:33;11.00;99.90
23186;DHT22;11761;51.324;4.590;2022-11-15T17:46:59;11.10;99.90
23186;DHT22;11761;51.324;4.590;2022-11-15T17:49:25;11.10;99.90
23186;DHT22;11761;51.324;4.590;2022-11-15T17:51:51;11.00;99.90